Time;durP1;ratioP1;P1;durP2;ratioP2;P2;SDS_P1;SDS_P2;PMS_P1;PMS_P2;Temp;Humidity;BMP_temperature;BMP_pressure;BME280_temperature;BME280_humidity;BME280_pressure;Samples;Min_cycle;Max_cycle;Signal;HPM_P1;HPM_P2
2021/12/25 00:01:30;;;;;;;;;;;5.60;99.90;;;;;;8386358;28;19931;-70
2021/12/25 00:05:32;;;;;;;;;;;5.50;99.90;;;;;;8389099;28;19933;-70
2021/12/25 00:09:33;;;;;;;;;;;5.40;99.90;;;;;;8361244;28;19979;-70
2021/12/25 00:13:35;;;;;;;;;;;5.40;99.90;;;;;;8383680;28;20388;-70
2021/12/25 00:17:37;;;;;;;;;;;5.30;99.90;;;;;;8370162;28;19964;-69
2021/12/25 00:21:39;;;;;;;;;;;5.30;99.90;;;;;;8382239;28;19924;-70
2021/12/25 00:25:51;;;;;;;;;;;5.20;99.90;;;;;;8390736;28;20440;-69
2021/12/25 00:30:09;;;;;;;;;;;5.20;99.90;;;;;;8388292;28;20380;-70
2021/12/25 00:34:14;;;;;;;;;;;5.20;99.90;;;;;;8379417;28;19978;-69
2021/12/25 00:38:15;;;;;;;;;;;5.20;99.90;;;;;;8381749;28;19984;-69
2021/12/25 00:42:17;;;;;;;;;;;5.20;99.90;;;;;;8383256;28;20400;-69
2021/12/25 00:46:19;;;;;;;;;;;5.10;99.90;;;;;;8380188;28;19972;-69
2021/12/25 00:50:21;;;;;;;;;;;5.10;99.90;;;;;;8362115;28;19968;-69
2021/12/25 00:54:22;;;;;;;;;;;5.00;99.90;;;;;;8351519;28;20023;-70
2021/12/25 00:58:24;;;;;;;;;;;5.00;99.90;;;;;;8350411;28;19925;-70
2021/12/25 01:02:27;;;;;;;;;;;4.90;99.90;;;;;;8347603;28;19979;-70
2021/12/25 01:06:29;;;;;;;;;;;4.90;99.90;;;;;;8344134;28;19925;-69
2021/12/25 01:10:32;;;;;;;;;;;4.90;99.90;;;;;;8346987;28;20257;-69
2021/12/25 01:14:42;;;;;;;;;;;4.90;99.90;;;;;;8343713;28;19967;-69
2021/12/25 01:40:46;;;;;;;;;;;4.60;99.90;;;;;;8349773;28;20304;-70
2021/12/25 01:49:07;;;;;;;;;;;4.50;99.90;;;;;;8373465;28;19989;-69
2021/12/25 01:53:08;;;;;;;;;;;4.50;99.90;;;;;;8388958;28;19960;-69
2021/12/25 01:57:10;;;;;;;;;;;4.40;99.90;;;;;;8389658;28;19936;-69
2021/12/25 02:01:12;;;;;;;;;;;4.30;99.90;;;;;;8392880;28;19951;-69
2021/12/25 02:05:14;;;;;;;;;;;4.20;99.90;;;;;;8385562;28;19925;-69
2021/12/25 02:09:16;;;;;;;;;;;4.20;99.90;;;;;;8385439;28;19931;-69
2021/12/25 02:13:19;;;;;;;;;;;4.10;99.90;;;;;;8394757;28;19935;-70
2021/12/25 02:17:37;;;;;;;;;;;4.00;99.90;;;;;;8389010;28;20292;-69
2021/12/25 02:21:40;;;;;;;;;;;4.00;99.90;;;;;;8387396;28;19924;-69
2021/12/25 02:25:41;;;;;;;;;;;3.90;99.90;;;;;;8392320;28;20228;-69
2021/12/25 02:29:43;;;;;;;;;;;3.80;99.90;;;;;;8391181;28;19936;-69
2021/12/25 02:33:45;;;;;;;;;;;3.80;99.90;;;;;;8381570;28;20050;-69
2021/12/25 02:37:47;;;;;;;;;;;3.80;99.90;;;;;;8378952;28;19925;-69
2021/12/25 02:41:50;;;;;;;;;;;3.70;99.90;;;;;;8372531;28;19925;-69
2021/12/25 02:45:54;;;;;;;;;;;3.70;99.90;;;;;;8380934;28;20380;-69
2021/12/25 02:49:56;;;;;;;;;;;3.60;99.90;;;;;;8355809;28;19968;-69
2021/12/25 02:53:57;;;;;;;;;;;3.60;99.90;;;;;;8390313;28;20404;-69
2021/12/25 02:57:59;;;;;;;;;;;3.50;99.90;;;;;;8388502;28;20012;-69
2021/12/25 03:02:19;;;;;;;;;;;3.50;99.90;;;;;;8391644;28;19933;-69
2021/12/25 03:06:22;;;;;;;;;;;3.50;99.90;;;;;;8380556;28;19932;-69
2021/12/25 03:10:23;;;;;;;;;;;3.50;99.90;;;;;;8362952;28;19924;-69
2021/12/25 03:14:35;;;;;;;;;;;3.60;99.90;;;;;;8383811;28;19931;-69
2021/12/25 03:18:43;;;;;;;;;;;3.60;99.90;;;;;;8377602;28;19931;-69
2021/12/25 03:22:45;;;;;;;;;;;3.60;99.90;;;;;;8382695;28;19933;-69
2021/12/25 03:26:52;;;;;;;;;;;3.50;99.90;;;;;;8397907;28;19956;-69
2021/12/25 03:30:53;;;;;;;;;;;3.50;99.90;;;;;;8378041;28;19935;-70
2021/12/25 03:34:55;;;;;;;;;;;3.50;99.90;;;;;;8391375;28;19977;-69
2021/12/25 03:38:56;;;;;;;;;;;3.50;99.90;;;;;;8381662;28;19936;-69
2021/12/25 03:42:59;;;;;;;;;;;3.50;99.90;;;;;;8394267;28;19924;-70
2021/12/25 03:47:10;;;;;;;;;;;3.40;99.90;;;;;;8380144;28;20372;-69
2021/12/25 04:00:00;;;;;;;;;;;3.40;99.90;;;;;;8383750;28;20376;-69
2021/12/25 04:04:08;;;;;;;;;;;3.30;99.90;;;;;;8385535;28;19940;-69
2021/12/25 04:08:13;;;;;;;;;;;3.30;99.90;;;;;;8387153;28;19955;-69
2021/12/25 04:12:16;;;;;;;;;;;3.30;99.90;;;;;;8375935;28;19946;-69
2021/12/25 04:16:22;;;;;;;;;;;3.30;99.90;;;;;;8370532;28;20423;-69
2021/12/25 04:20:24;;;;;;;;;;;3.20;99.90;;;;;;8388048;28;20348;-69
2021/12/25 04:24:28;;;;;;;;;;;3.20;99.90;;;;;;8380543;28;20388;-69
2021/12/25 04:28:42;;;;;;;;;;;3.20;99.90;;;;;;8388243;28;19982;-69
2021/12/25 05:03:24;;;;;;;;;;;2.70;99.90;;;;;;8386116;28;19925;-69
2021/12/25 05:07:10;;;;;;;;;;;2.70;99.90;;;;;;8382053;28;19924;-69
2021/12/25 05:11:12;;;;;;;;;;;2.70;99.90;;;;;;8386257;28;20277;-70
2021/12/25 05:15:13;;;;;;;;;;;2.60;99.90;;;;;;8379830;28;19953;-70
2021/12/25 05:19:15;;;;;;;;;;;2.60;99.90;;;;;;8364609;28;20328;-69
2021/12/25 05:23:16;;;;;;;;;;;2.60;99.90;;;;;;8374470;28;19968;-69
2021/12/25 05:27:18;;;;;;;;;;;2.60;99.90;;;;;;8380389;28;20060;-69
2021/12/25 05:31:20;;;;;;;;;;;2.60;99.90;;;;;;8378804;28;20027;-69
2021/12/25 05:35:21;;;;;;;;;;;2.50;99.90;;;;;;8384827;28;19971;-69
2021/12/25 05:39:23;;;;;;;;;;;2.50;99.90;;;;;;8363728;28;19925;-70
2021/12/25 05:43:24;;;;;;;;;;;2.50;99.90;;;;;;8377926;28;19968;-69
2021/12/25 05:47:26;;;;;;;;;;;2.40;99.90;;;;;;8319945;28;1744248;-69
2021/12/25 05:51:28;;;;;;;;;;;2.40;99.90;;;;;;8381130;28;19964;-70
2021/12/25 05:55:30;;;;;;;;;;;2.30;99.90;;;;;;8368087;28;20355;-69
2021/12/25 05:59:31;;;;;;;;;;;2.30;99.90;;;;;;8384577;28;20794;-70
2021/12/25 06:03:33;;;;;;;;;;;2.10;99.90;;;;;;8387037;28;20364;-70
2021/12/25 06:07:35;;;;;;;;;;;2.10;99.90;;;;;;8350305;28;19979;-69
2021/12/25 06:11:37;;;;;;;;;;;2.00;99.90;;;;;;8383666;28;19924;-69
2021/12/25 06:15:39;;;;;;;;;;;1.90;99.90;;;;;;8384363;28;19964;-70
2021/12/25 06:19:40;;;;;;;;;;;1.90;99.90;;;;;;8368312;28;19964;-70
2021/12/25 06:23:42;;;;;;;;;;;1.80;99.90;;;;;;8383169;28;20455;-69
2021/12/25 06:28:03;;;;;;;;;;;1.90;99.90;;;;;;8392383;28;19925;-69
2021/12/25 06:32:05;;;;;;;;;;;1.90;99.90;;;;;;8385102;28;20303;-69
2021/12/25 06:36:07;;;;;;;;;;;1.80;99.90;;;;;;8386350;28;19978;-70
2021/12/25 06:40:12;;;;;;;;;;;1.70;99.90;;;;;;8392551;28;19977;-69
2021/12/25 06:44:13;;;;;;;;;;;1.70;99.90;;;;;;8392189;28;19925;-69
2021/12/25 06:48:16;;;;;;;;;;;1.70;99.90;;;;;;8392355;28;19928;-69
2021/12/25 06:52:18;;;;;;;;;;;1.50;99.90;;;;;;8394171;28;19925;-70
2021/12/25 06:56:21;;;;;;;;;;;1.50;99.90;;;;;;8394324;28;19976;-69
2021/12/25 07:00:23;;;;;;;;;;;1.40;99.90;;;;;;8389936;28;19928;-69
2021/12/25 07:04:25;;;;;;;;;;;1.30;99.90;;;;;;8384227;28;19931;-69
2021/12/25 07:08:26;;;;;;;;;;;1.30;99.90;;;;;;8391407;28;19994;-69
2021/12/25 07:12:31;;;;;;;;;;;1.30;99.90;;;;;;8393650;28;19939;-69
2021/12/25 07:16:33;;;;;;;;;;;1.30;99.90;;;;;;8392989;28;19932;-69
2021/12/25 07:20:34;;;;;;;;;;;1.20;99.90;;;;;;8369708;28;19924;-69
2021/12/25 07:24:36;;;;;;;;;;;1.10;99.90;;;;;;8389271;28;19924;-69
2021/12/25 07:28:38;;;;;;;;;;;1.00;99.90;;;;;;8376403;28;19924;-69
2021/12/25 07:32:39;;;;;;;;;;;0.90;99.90;;;;;;8396124;28;19959;-69
2021/12/25 07:36:41;;;;;;;;;;;0.80;99.90;;;;;;8396182;28;19925;-69
2021/12/25 07:40:42;;;;;;;;;;;0.70;99.90;;;;;;8393315;28;19929;-69
2021/12/25 07:44:44;;;;;;;;;;;0.70;99.90;;;;;;8383138;28;20011;-69
2021/12/25 07:48:47;;;;;;;;;;;0.60;99.90;;;;;;8387375;28;19978;-69
2021/12/25 07:52:48;;;;;;;;;;;0.50;99.90;;;;;;8384350;28;20265;-69
2021/12/25 07:56:50;;;;;;;;;;;0.40;99.90;;;;;;8363631;28;20447;-69
2021/12/25 08:00:53;;;;;;;;;;;0.30;99.90;;;;;;8375728;28;19928;-69
2021/12/25 08:04:55;;;;;;;;;;;0.20;99.90;;;;;;8361541;28;19925;-69
2021/12/25 08:09:01;;;;;;;;;;;0.10;99.90;;;;;;8357767;28;19925;-69
2021/12/25 08:13:02;;;;;;;;;;;0.00;99.90;;;;;;8376922;28;19995;-69
2021/12/25 08:17:04;;;;;;;;;;;0.00;99.90;;;;;;8381119;28;20019;-69
2021/12/25 08:21:06;;;;;;;;;;;0.00;99.90;;;;;;8381458;28;19933;-69
2021/12/25 08:25:08;;;;;;;;;;;0.00;99.90;;;;;;8379617;28;20027;-69
2021/12/25 08:29:10;;;;;;;;;;;-0.10;99.90;;;;;;8380636;28;20019;-69
2021/12/25 08:33:12;;;;;;;;;;;-0.10;99.90;;;;;;8380126;28;20318;-69
2021/12/25 08:37:13;;;;;;;;;;;-0.10;99.90;;;;;;8352359;28;20490;-69
2021/12/25 08:41:15;;;;;;;;;;;-0.20;99.90;;;;;;8380520;28;20404;-69
2021/12/25 08:45:39;;;;;;;;;;;-0.20;99.90;;;;;;8378246;28;20352;-69
2021/12/25 08:49:41;;;;;;;;;;;-0.20;99.90;;;;;;8382999;28;19924;-69
2021/12/25 08:53:43;;;;;;;;;;;-0.20;99.90;;;;;;8359370;28;19963;-69
2021/12/25 08:57:44;;;;;;;;;;;-0.20;99.90;;;;;;8353283;28;19925;-69
2021/12/25 09:01:47;;;;;;;;;;;-0.10;99.90;;;;;;8361949;28;19932;-69
2021/12/25 09:05:49;;;;;;;;;;;0.00;99.90;;;;;;8393476;28;19924;-69
2021/12/25 09:09:51;;;;;;;;;;;0.10;99.90;;;;;;8378709;28;20358;-69
2021/12/25 09:13:53;;;;;;;;;;;0.30;99.90;;;;;;8372539;28;19980;-69
2021/12/25 09:17:54;;;;;;;;;;;0.50;99.90;;;;;;8377112;28;19933;-69
2021/12/25 09:21:57;;;;;;;;;;;0.90;99.90;;;;;;8373258;28;19929;-69
2021/12/25 09:25:59;;;;;;;;;;;1.30;99.90;;;;;;8353156;28;19948;-70
2021/12/25 09:30:00;;;;;;;;;;;1.60;99.90;;;;;;8374781;28;19975;-69
2021/12/25 09:34:02;;;;;;;;;;;1.70;99.90;;;;;;8354185;28;19924;-69
2021/12/25 09:38:04;;;;;;;;;;;1.60;99.90;;;;;;8348357;28;19976;-70
2021/12/25 09:42:06;;;;;;;;;;;1.60;99.90;;;;;;8378112;28;20000;-69
2021/12/25 09:46:07;;;;;;;;;;;1.60;99.90;;;;;;8374366;28;19933;-69
2021/12/25 09:50:10;;;;;;;;;;;1.50;99.90;;;;;;8375603;28;19998;-69
2021/12/25 09:54:14;;;;;;;;;;;1.40;99.90;;;;;;8379721;28;19932;-69
2021/12/25 09:58:16;;;;;;;;;;;1.30;99.90;;;;;;8380029;28;19925;-69
2021/12/25 10:02:18;;;;;;;;;;;1.40;99.90;;;;;;8376353;28;19979;-69
2021/12/25 10:06:27;;;;;;;;;;;1.50;99.90;;;;;;8380517;28;19928;-69
2021/12/25 10:10:40;;;;;;;;;;;1.60;99.90;;;;;;8378932;28;20372;-69
2021/12/25 10:14:50;;;;;;;;;;;1.70;99.90;;;;;;8382774;28;19948;-69
2021/12/25 10:18:52;;;;;;;;;;;1.70;99.90;;;;;;8388327;28;21126;-69
2021/12/25 10:23:01;;;;;;;;;;;1.80;99.90;;;;;;8385235;28;20368;-69
2021/12/25 10:27:12;;;;;;;;;;;2.00;99.90;;;;;;8385937;28;19971;-69
2021/12/25 10:31:16;;;;;;;;;;;2.10;99.90;;;;;;8385865;28;19967;-69
2021/12/25 10:35:20;;;;;;;;;;;2.30;99.90;;;;;;8385154;28;19974;-69
2021/12/25 10:39:23;;;;;;;;;;;2.60;99.90;;;;;;8367932;28;19956;-69
2021/12/25 10:43:25;;;;;;;;;;;2.90;99.90;;;;;;8357986;28;20023;-69
2021/12/25 10:47:28;;;;;;;;;;;3.20;99.90;;;;;;8386839;28;20256;-69
2021/12/25 10:51:30;;;;;;;;;;;3.80;99.90;;;;;;8400506;28;19974;-69
2021/12/25 10:55:35;;;;;;;;;;;4.50;99.90;;;;;;8398427;28;20210;-70
2021/12/25 10:59:44;;;;;;;;;;;5.20;99.90;;;;;;8384707;28;20371;-69
2021/12/25 11:03:46;;;;;;;;;;;5.70;99.90;;;;;;8381404;28;19924;-69
2021/12/25 11:08:00;;;;;;;;;;;6.00;99.90;;;;;;8367956;28;19924;-69
2021/12/25 11:12:20;;;;;;;;;;;6.20;99.90;;;;;;8385501;28;19933;-70
2021/12/25 11:16:31;;;;;;;;;;;6.50;99.90;;;;;;8383722;28;20374;-69
2021/12/25 11:20:38;;;;;;;;;;;6.80;99.90;;;;;;8366232;28;19935;-69
2021/12/25 11:24:43;;;;;;;;;;;7.00;99.90;;;;;;8382322;28;19963;-70
2021/12/25 11:28:45;;;;;;;;;;;7.30;99.90;;;;;;8387481;28;19987;-70
2021/12/25 11:32:48;;;;;;;;;;;7.30;99.90;;;;;;8388742;28;20515;-69
2021/12/25 11:36:50;;;;;;;;;;;7.50;99.90;;;;;;8365595;28;19963;-69
2021/12/25 11:40:53;;;;;;;;;;;8.00;99.90;;;;;;8379015;28;20754;-70
2021/12/25 11:44:56;;;;;;;;;;;8.30;99.90;;;;;;8384252;28;20064;-69
2021/12/25 11:49:14;;;;;;;;;;;8.70;99.90;;;;;;8382066;28;19936;-70
2021/12/25 11:57:47;;;;;;;;;;;9.40;99.90;;;;;;8377637;28;19928;-69
2021/12/25 12:01:52;;;;;;;;;;;9.60;99.90;;;;;;8373018;28;20364;-70
2021/12/25 12:05:54;;;;;;;;;;;9.60;99.90;;;;;;8376462;28;19932;-69
2021/12/25 12:09:56;;;;;;;;;;;9.70;99.90;;;;;;8344890;28;20051;-70
2021/12/25 12:14:25;;;;;;;;;;;9.70;99.90;;;;;;8361945;28;19935;-70
2021/12/25 12:18:31;;;;;;;;;;;9.80;99.90;;;;;;8371954;28;20023;-70
2021/12/25 12:22:46;;;;;;;;;;;10.20;99.90;;;;;;8350817;28;19939;-70
2021/12/25 12:26:50;;;;;;;;;;;10.40;99.90;;;;;;8371502;28;20273;-70
2021/12/25 12:30:52;;;;;;;;;;;10.40;99.90;;;;;;8369183;28;19976;-70
2021/12/25 12:34:54;;;;;;;;;;;10.60;99.90;;;;;;8370738;28;20402;-70
2021/12/25 12:39:22;;;;;;;;;;;10.90;99.90;;;;;;8387536;28;19967;-70
2021/12/25 12:43:44;;;;;;;;;;;10.80;99.90;;;;;;8368152;28;19936;-69
2021/12/25 12:48:04;;;;;;;;;;;10.80;99.90;;;;;;8373604;28;20015;-70
2021/12/25 12:52:17;;;;;;;;;;;10.80;99.90;;;;;;8352794;28;19932;-70
2021/12/25 12:56:21;;;;;;;;;;;11.10;99.90;;;;;;8372335;28;20004;-70
2021/12/25 13:00:26;;;;;;;;;;;11.30;99.90;;;;;;8377011;28;20364;-70
2021/12/25 13:04:27;;;;;;;;;;;11.40;99.90;;;;;;8377140;28;19979;-70
2021/12/25 13:08:31;;;;;;;;;;;11.20;99.90;;;;;;8357824;28;19932;-70
2021/12/25 13:12:56;;;;;;;;;;;11.30;99.90;;;;;;8375935;28;19963;-70
2021/12/25 13:16:57;;;;;;;;;;;11.60;99.90;;;;;;8373752;28;20019;-70
2021/12/25 13:20:59;;;;;;;;;;;12.10;99.90;;;;;;8367928;28;19932;-70
2021/12/25 13:25:06;;;;;;;;;;;12.00;99.90;;;;;;8374696;28;19968;-70
2021/12/25 13:29:09;;;;;;;;;;;10.90;99.90;;;;;;8379886;28;19960;-70
2021/12/25 13:33:13;;;;;;;;;;;9.50;99.90;;;;;;8374551;28;20512;-69
2021/12/25 13:37:16;;;;;;;;;;;8.50;99.90;;;;;;8363608;28;20299;-70
2021/12/25 13:41:30;;;;;;;;;;;7.70;99.90;;;;;;8360288;28;20364;-70
2021/12/25 13:45:32;;;;;;;;;;;7.10;99.90;;;;;;8380282;28;19972;-69
2021/12/25 13:49:38;;;;;;;;;;;6.60;99.90;;;;;;8378131;28;19932;-69
2021/12/25 13:53:41;;;;;;;;;;;6.10;99.90;;;;;;8382097;28;20356;-69
2021/12/25 13:57:44;;;;;;;;;;;5.60;99.90;;;;;;8382478;28;20345;-69
2021/12/25 14:01:54;;;;;;;;;;;5.30;99.90;;;;;;8380840;28;20377;-69
2021/12/25 14:05:56;;;;;;;;;;;5.10;99.90;;;;;;8344430;28;19932;-69
2021/12/25 14:09:59;;;;;;;;;;;5.00;99.90;;;;;;8381732;28;20046;-69
2021/12/25 14:14:04;;;;;;;;;;;5.00;99.90;;;;;;8379114;28;20011;-69
2021/12/25 14:18:06;;;;;;;;;;;4.80;99.90;;;;;;8385399;28;20268;-69
2021/12/25 14:22:08;;;;;;;;;;;4.70;99.90;;;;;;8380153;28;20318;-70
2021/12/25 14:26:09;;;;;;;;;;;4.60;99.90;;;;;;8383244;28;19971;-69
2021/12/25 14:30:13;;;;;;;;;;;4.50;99.90;;;;;;8378952;28;19931;-69
2021/12/25 14:34:18;;;;;;;;;;;4.50;99.90;;;;;;8382983;28;19928;-70
2021/12/25 14:38:20;;;;;;;;;;;4.40;99.90;;;;;;8362610;28;19987;-69
2021/12/25 14:42:31;;;;;;;;;;;4.30;99.90;;;;;;8381683;28;19932;-70
2021/12/25 14:46:33;;;;;;;;;;;4.20;99.90;;;;;;8384043;28;19939;-69
2021/12/25 14:50:35;;;;;;;;;;;4.30;99.90;;;;;;8365736;28;20302;-69
2021/12/25 14:54:37;;;;;;;;;;;4.90;99.90;;;;;;8383588;28;20015;-70
2021/12/25 14:58:45;;;;;;;;;;;5.80;99.90;;;;;;8366322;28;19967;-70
2021/12/25 15:02:47;;;;;;;;;;;6.70;99.90;;;;;;8380193;28;19929;-69
2021/12/25 15:06:50;;;;;;;;;;;7.30;99.90;;;;;;8357026;28;19933;-69
2021/12/25 15:10:52;;;;;;;;;;;7.60;99.90;;;;;;8385143;28;19972;-69
2021/12/25 15:15:00;;;;;;;;;;;7.70;99.90;;;;;;8380756;28;19968;-69
2021/12/25 15:19:02;;;;;;;;;;;7.60;99.90;;;;;;8381147;28;19978;-69
2021/12/25 15:23:14;;;;;;;;;;;6.80;99.90;;;;;;8392561;28;20384;-69
2021/12/25 15:27:30;;;;;;;;;;;5.80;99.90;;;;;;8381326;28;21452;-69
2021/12/25 15:31:32;;;;;;;;;;;4.80;99.90;;;;;;8383203;28;19964;-69
2021/12/25 15:35:35;;;;;;;;;;;4.00;99.90;;;;;;8380047;28;19933;-69
2021/12/25 15:39:37;;;;;;;;;;;3.40;99.90;;;;;;8381399;28;20019;-70
2021/12/25 15:43:38;;;;;;;;;;;3.20;99.90;;;;;;8364112;28;20348;-69
2021/12/25 15:47:41;;;;;;;;;;;2.90;99.90;;;;;;8383536;28;20027;-69
2021/12/25 15:51:56;;;;;;;;;;;2.70;99.90;;;;;;8381748;28;19989;-69
2021/12/25 15:55:58;;;;;;;;;;;2.50;99.90;;;;;;8380804;28;19950;-69
2021/12/25 16:00:00;;;;;;;;;;;2.30;99.90;;;;;;8363261;28;19968;-69
2021/12/25 16:04:01;;;;;;;;;;;2.10;99.90;;;;;;8363435;28;19968;-69
2021/12/25 16:08:03;;;;;;;;;;;2.00;99.90;;;;;;8382523;28;19935;-69
2021/12/25 16:12:06;;;;;;;;;;;1.90;99.90;;;;;;8381763;28;19924;-69
2021/12/25 16:16:07;;;;;;;;;;;1.80;99.90;;;;;;8381690;28;20066;-69
2021/12/25 16:20:09;;;;;;;;;;;1.70;99.90;;;;;;8362884;28;20034;-69
2021/12/25 16:24:12;;;;;;;;;;;1.60;99.90;;;;;;8378773;28;20007;-69
2021/12/25 16:28:13;;;;;;;;;;;1.60;99.90;;;;;;8348522;28;20072;-70
2021/12/25 16:32:15;;;;;;;;;;;1.50;99.90;;;;;;8374076;28;20700;-69
2021/12/25 16:36:17;;;;;;;;;;;1.40;99.90;;;;;;8353726;28;20356;-69
2021/12/25 16:40:18;;;;;;;;;;;1.30;99.90;;;;;;8343157;28;19960;-69
2021/12/25 16:44:20;;;;;;;;;;;1.30;99.90;;;;;;8361469;28;19975;-69
2021/12/25 16:48:22;;;;;;;;;;;1.20;99.90;;;;;;8358088;28;20363;-69
2021/12/25 16:52:24;;;;;;;;;;;1.20;99.90;;;;;;8356277;28;19960;-69
2021/12/25 16:56:25;;;;;;;;;;;1.10;99.90;;;;;;8359097;28;19968;-69
2021/12/25 17:00:27;;;;;;;;;;;1.10;99.90;;;;;;8360455;28;19979;-69
2021/12/25 17:04:29;;;;;;;;;;;1.00;99.90;;;;;;8356963;28;19943;-69
2021/12/25 17:08:31;;;;;;;;;;;1.00;99.90;;;;;;8357961;28;19932;-69
2021/12/25 17:12:35;;;;;;;;;;;0.90;99.90;;;;;;8356931;28;20356;-69
2021/12/25 17:16:36;;;;;;;;;;;0.90;99.90;;;;;;8358818;28;19940;-69
2021/12/25 17:20:39;;;;;;;;;;;0.80;99.90;;;;;;8342460;28;20007;-69
2021/12/25 17:24:41;;;;;;;;;;;0.70;99.90;;;;;;8359633;28;20092;-69
2021/12/25 17:28:42;;;;;;;;;;;0.60;99.90;;;;;;8342256;28;21057;-69
2021/12/25 17:32:44;;;;;;;;;;;0.60;99.90;;;;;;8359570;28;19991;-69
2021/12/25 17:36:48;;;;;;;;;;;0.60;99.90;;;;;;8356204;28;20313;-69
2021/12/25 17:40:49;;;;;;;;;;;0.40;99.90;;;;;;8360031;28;19925;-69
2021/12/25 17:44:53;;;;;;;;;;;0.40;99.90;;;;;;8389327;28;19963;-69
2021/12/25 17:48:54;;;;;;;;;;;0.30;99.90;;;;;;8380540;28;19928;-69
2021/12/25 17:52:56;;;;;;;;;;;0.30;99.90;;;;;;8376811;28;19964;-69
2021/12/25 17:56:58;;;;;;;;;;;0.30;99.90;;;;;;8375133;28;19998;-69
2021/12/25 18:01:00;;;;;;;;;;;0.20;99.90;;;;;;8378239;28;19971;-69
2021/12/25 18:05:04;;;;;;;;;;;0.20;99.90;;;;;;8357154;28;19932;-69
2021/12/25 18:09:05;;;;;;;;;;;0.10;99.90;;;;;;8379633;28;19987;-70
2021/12/25 18:13:07;;;;;;;;;;;0.00;99.90;;;;;;8381167;28;19944;-69
2021/12/25 18:17:09;;;;;;;;;;;-0.10;99.90;;;;;;8368616;28;19940;-68
2021/12/25 18:21:11;;;;;;;;;;;-0.20;99.90;;;;;;8349662;28;19969;-69
2021/12/25 18:25:13;;;;;;;;;;;-0.20;99.90;;;;;;8376790;28;19939;-69
2021/12/25 18:29:14;;;;;;;;;;;-0.20;99.90;;;;;;8363682;28;19924;-69
2021/12/25 18:33:17;;;;;;;;;;;-0.30;99.90;;;;;;8350558;28;20035;-69
2021/12/25 18:37:18;;;;;;;;;;;-0.30;99.90;;;;;;8367759;28;19963;-69
2021/12/25 18:41:20;;;;;;;;;;;-0.40;99.90;;;;;;8385448;28;20186;-69
2021/12/25 18:45:22;;;;;;;;;;;-0.40;99.90;;;;;;8368931;28;19956;-69
2021/12/25 18:49:24;;;;;;;;;;;-0.50;99.90;;;;;;8382789;28;20305;-68
2021/12/25 18:53:27;;;;;;;;;;;-0.50;99.90;;;;;;8363786;28;19929;-69
2021/12/25 18:57:28;;;;;;;;;;;-0.60;99.90;;;;;;8381743;28;19935;-69
2021/12/25 19:01:32;;;;;;;;;;;-0.60;99.90;;;;;;8353981;28;19936;-68
2021/12/25 19:05:34;;;;;;;;;;;-0.70;99.90;;;;;;8377719;28;19947;-69
2021/12/25 19:09:36;;;;;;;;;;;-0.70;99.90;;;;;;8377578;28;20058;-69
2021/12/25 19:13:41;;;;;;;;;;;-0.70;99.90;;;;;;8383146;28;20296;-69
2021/12/25 19:17:43;;;;;;;;;;;-0.80;99.90;;;;;;8381264;28;19975;-69
2021/12/25 19:21:45;;;;;;;;;;;-0.80;99.90;;;;;;8380843;28;20336;-69
2021/12/25 19:25:46;;;;;;;;;;;-0.80;99.90;;;;;;8382459;28;19956;-69
2021/12/25 19:29:48;;;;;;;;;;;-0.90;99.90;;;;;;8365594;28;20390;-68
2021/12/25 19:33:50;;;;;;;;;;;-0.90;99.90;;;;;;8382868;28;19936;-68
2021/12/25 19:37:52;;;;;;;;;;;-0.80;99.90;;;;;;8382577;28;19924;-68
2021/12/25 19:41:54;;;;;;;;;;;-0.90;99.90;;;;;;8384372;28;20041;-68
2021/12/25 19:45:57;;;;;;;;;;;-0.90;99.90;;;;;;8381462;28;19975;-68
2021/12/25 19:50:02;;;;;;;;;;;-1.00;99.90;;;;;;8354029;28;20029;-68
2021/12/25 19:54:04;;;;;;;;;;;-1.10;99.90;;;;;;8380754;28;19931;-69
2021/12/25 19:58:06;;;;;;;;;;;-1.10;99.90;;;;;;8382685;28;20463;-68
2021/12/25 20:02:09;;;;;;;;;;;-1.20;99.90;;;;;;8381939;28;19955;-68
2021/12/25 20:06:14;;;;;;;;;;;-1.20;99.90;;;;;;8381756;28;19935;-68
2021/12/25 20:10:20;;;;;;;;;;;-1.30;99.90;;;;;;8381927;28;19954;-68
2021/12/25 20:14:22;;;;;;;;;;;-1.20;99.90;;;;;;8352335;28;19928;-68
2021/12/25 20:18:24;;;;;;;;;;;-1.30;99.90;;;;;;8380665;28;20284;-69
2021/12/25 20:22:26;;;;;;;;;;;-1.30;99.90;;;;;;8381890;28;19924;-68
2021/12/25 20:26:28;;;;;;;;;;;-1.40;99.90;;;;;;8362777;28;20010;-68
2021/12/25 20:30:29;;;;;;;;;;;-1.40;99.90;;;;;;8383012;28;19932;-69
2021/12/25 20:34:31;;;;;;;;;;;-1.40;99.90;;;;;;8380163;28;19960;-68
2021/12/25 20:38:33;;;;;;;;;;;-1.50;99.90;;;;;;8362774;28;20353;-68
2021/12/25 20:42:35;;;;;;;;;;;-1.50;99.90;;;;;;8380811;28;19971;-68
2021/12/25 20:46:36;;;;;;;;;;;-1.50;99.90;;;;;;8381028;28;20017;-69
2021/12/25 20:50:39;;;;;;;;;;;-1.50;99.90;;;;;;8379146;28;19983;-68
2021/12/25 20:54:51;;;;;;;;;;;-1.50;99.90;;;;;;8380071;28;19928;-68
2021/12/25 20:58:52;;;;;;;;;;;-1.50;99.90;;;;;;8350384;28;19971;-69
2021/12/25 21:02:54;;;;;;;;;;;-1.60;99.90;;;;;;8377676;28;20048;-68
2021/12/25 21:06:56;;;;;;;;;;;-1.60;99.90;;;;;;8380335;28;19924;-69
2021/12/25 21:10:58;;;;;;;;;;;-1.70;99.90;;;;;;8378238;28;19959;-69
2021/12/25 21:15:00;;;;;;;;;;;-1.70;99.90;;;;;;8372701;28;19963;-69
2021/12/25 21:19:03;;;;;;;;;;;-1.70;99.90;;;;;;8380176;28;19979;-68
2021/12/25 21:23:05;;;;;;;;;;;-1.70;99.90;;;;;;8375940;28;19924;-68
2021/12/25 21:27:07;;;;;;;;;;;-1.70;99.90;;;;;;8380057;28;19925;-68
2021/12/25 21:31:08;;;;;;;;;;;-1.80;99.90;;;;;;8378783;28;20191;-69
2021/12/25 21:35:12;;;;;;;;;;;-1.80;99.90;;;;;;8377492;28;19928;-69
2021/12/25 21:39:14;;;;;;;;;;;-1.90;99.90;;;;;;8377957;28;19968;-69
2021/12/25 21:43:16;;;;;;;;;;;-1.90;99.90;;;;;;8379427;28;20082;-68
2021/12/25 21:47:17;;;;;;;;;;;-1.90;99.90;;;;;;8379505;28;19932;-68
2021/12/25 21:51:19;;;;;;;;;;;-1.90;99.90;;;;;;8376992;28;19972;-69
2021/12/25 21:55:21;;;;;;;;;;;-2.00;99.90;;;;;;8391393;28;19967;-68
2021/12/25 21:59:22;;;;;;;;;;;-2.00;99.90;;;;;;8379235;28;20011;-68
2021/12/25 22:03:24;;;;;;;;;;;-2.00;99.90;;;;;;8381211;28;19932;-68
2021/12/25 22:07:30;;;;;;;;;;;-2.00;99.90;;;;;;8370147;28;19948;-68
2021/12/25 22:11:31;;;;;;;;;;;-2.00;99.90;;;;;;8386745;28;20005;-68
2021/12/25 22:15:33;;;;;;;;;;;-2.10;99.90;;;;;;8375924;28;19959;-68
2021/12/25 22:19:35;;;;;;;;;;;-2.10;99.90;;;;;;8390128;28;19935;-68
2021/12/25 22:23:41;;;;;;;;;;;-2.20;99.90;;;;;;8377132;28;19925;-69
2021/12/25 22:27:43;;;;;;;;;;;-2.20;99.90;;;;;;8383834;28;19983;-68
2021/12/25 22:31:46;;;;;;;;;;;-2.20;99.90;;;;;;8386251;28;20583;-68
2021/12/25 22:35:48;;;;;;;;;;;-2.20;99.90;;;;;;8370219;28;20392;-68
2021/12/25 22:39:50;;;;;;;;;;;-2.30;99.90;;;;;;8393029;28;19986;-68
2021/12/25 22:43:51;;;;;;;;;;;-2.30;99.90;;;;;;8388426;28;20004;-68
2021/12/25 22:47:54;;;;;;;;;;;-2.30;99.90;;;;;;8384605;28;19932;-69
2021/12/25 22:51:59;;;;;;;;;;;-2.30;99.90;;;;;;8390610;28;19967;-69
2021/12/25 22:56:00;;;;;;;;;;;-2.30;99.90;;;;;;8397800;28;19932;-69
2021/12/25 23:00:06;;;;;;;;;;;-2.40;99.90;;;;;;8389852;28;20369;-68
2021/12/25 23:04:07;;;;;;;;;;;-2.40;99.90;;;;;;8386881;28;20047;-69
2021/12/25 23:08:12;;;;;;;;;;;-2.40;99.90;;;;;;8379842;28;19976;-69
2021/12/25 23:12:16;;;;;;;;;;;-2.40;99.90;;;;;;8373178;28;20315;-68
2021/12/25 23:16:18;;;;;;;;;;;-2.40;99.90;;;;;;8387441;28;19968;-68
2021/12/25 23:20:20;;;;;;;;;;;-2.50;99.90;;;;;;8385284;28;20257;-69
2021/12/25 23:24:22;;;;;;;;;;;-2.50;99.90;;;;;;8389374;28;19982;-68
2021/12/25 23:28:23;;;;;;;;;;;-2.50;99.90;;;;;;8392093;28;19924;-69
2021/12/25 23:32:25;;;;;;;;;;;-2.50;99.90;;;;;;8377242;28;19971;-69
2021/12/25 23:36:27;;;;;;;;;;;-2.50;99.90;;;;;;8384582;28;19924;-68
2021/12/25 23:40:29;;;;;;;;;;;-2.50;99.90;;;;;;8387597;28;19928;-69
2021/12/25 23:44:30;;;;;;;;;;;-2.50;99.90;;;;;;8388746;28;20360;-69
2021/12/25 23:48:32;;;;;;;;;;;-2.50;99.90;;;;;;8384254;28;19931;-68
2021/12/25 23:52:33;;;;;;;;;;;-2.50;99.90;;;;;;8381709;28;20407;-69
2021/12/25 23:56:35;;;;;;;;;;;-2.40;99.90;;;;;;8380296;28;19995;-68
